ADDS TAF Board (Experimental) INFO Settings
IDs: Format: Expanded Condensed

KCLE - Cleveland/Hopkins In, OH, US

Issued at 2320 UTC 27 Jul 2016
Updated at 0251 UTC 28 Jul 2016
Time0151Z 28/03Z 28/04Z 28/05Z 28/06Z 28/07Z 28/08Z 28/09Z 28/10Z 28/11Z 28/12Z 28/13Z 28/14Z 28/15Z
Type OBS PRVL PRVL PRVL PRVL PRVL PRVL PRVL PRVL PRVL PRVL PRVL PRVL PRVL
VIS 10 >6 >6 >6 >6 >6 >6 >6 >6 >6 >6 >6 >6 >6
CIG -- -- -- -- -- -- -- -- -- -- -- -- -- --
Cover SCT SCT SCT SCT SCT SCT SCT SCT SCT SCT SCT SCT SCT SCT
FltCat VFR VFR VFR VFR VFR VFR VFR VFR VFR VFR VFR VFR VFR VFR
WX -- -- -- -- -- -- -- -- -- -- -- -- -- --
WDir 80 180 180 180 180 180 180 180 180 180 180 180 180 180
WSpd 5 3 3 3 3 3 3 3 3 3 3 3 3 3
WGst -- -- -- -- -- -- -- -- -- -- -- -- -- --
R06/24
XWnd -3 -2 -2 -2 -2 -2 -2 -2 -2 -2 -2 -2 -2 -2
HWnd 4 -2 -2 -2 -2 -2 -2 -2 -2 -2 -2 -2 -2 -2
R10/28
XWnd 1 -3 -3 -3 -3 -3 -3 -3 -3 -3 -3 -3 -3 -3
HWnd 5 0 0 0 0 0 0 0 0 0 0 0 0 0

Raw TAF
KCLE 272320Z 2800/2906 34008KT P6SM FEW060
  FM280200 18003KT P6SM SCT250
  FM281600 35005KT P6SM FEW050 BKN200


Raw METAR
KCLE 280151Z 08005KT 10SM SCT250 27/14 A2995 RMK AO2 SLP135 T02720139
KCLE 280051Z 01004KT 10SM FEW080 SCT250 28/13 A2996 RMK AO2 SLP139 T02830133
KCLE 272351Z 36006KT 10SM FEW065 FEW180 SCT250 29/13 A2996 RMK AO2 SLP138 T02940133 10322 20294 56005

METAR Board
Radar Display
Forecast Discussion

TAF Board Legend

Potential Impact
Threat None Slight Moderate High
Visibility (sm) ≥5.1 5.1>X≥3 3>X≥1 <1
Ceiling (100 ft) ≥30.1 30.1>X≥10 10>X≥5 <5
Wind Speed (kt) <10 10≤X<20 20≤X<30 ≥30
Wind Gust (kt) <15 15≤X<25 25≤X<35 ≥35
Weather No Wx Reported VCTS,-TS,-FZRA,SN TS,FZRA +TS,+FZRA,+SN